createdAt,value
2022-07-26T00:00:42.891Z,59.71
2022-07-26T00:05:46.004Z,59.76
2022-07-26T00:10:50.440Z,59.93
2022-07-26T00:15:54.779Z,59.92
2022-07-26T00:20:57.784Z,60.03
2022-07-26T00:26:00.996Z,60.13
2022-07-26T00:31:04.537Z,60.40
2022-07-26T00:36:08.598Z,60.56
2022-07-26T00:41:11.554Z,60.71
2022-07-26T00:46:14.620Z,60.59
2022-07-26T00:51:17.971Z,60.54
2022-07-26T00:56:22.208Z,60.53
2022-07-26T01:01:25.295Z,60.49
2022-07-26T01:06:28.307Z,60.63
2022-07-26T01:11:31.885Z,60.57
2022-07-26T01:16:35.205Z,60.65
2022-07-26T01:21:38.018Z,60.68
2022-07-26T01:26:40.818Z,60.61
2022-07-26T01:31:43.742Z,60.73
2022-07-26T01:36:47.015Z,60.83
2022-07-26T01:41:49.893Z,61.00
2022-07-26T01:46:52.650Z,61.10
2022-07-26T01:51:55.393Z,61.10
2022-07-26T01:56:58.093Z,61.20
2022-07-26T02:02:00.896Z,61.37
2022-07-26T02:07:05.583Z,61.45
2022-07-26T02:12:15.042Z,61.42
2022-07-26T02:17:18.458Z,61.63
2022-07-26T02:22:21.245Z,61.72
2022-07-26T02:27:23.969Z,62.06
2022-07-26T02:32:26.667Z,62.11
2022-07-26T02:37:29.325Z,62.26
2022-07-26T02:42:32.072Z,62.53
2022-07-26T02:47:34.798Z,62.54
2022-07-26T02:52:37.498Z,62.78
2022-07-26T02:57:46.379Z,62.78
2022-07-26T03:02:51.485Z,62.73
2022-07-26T03:07:54.273Z,62.59
2022-07-26T03:12:56.972Z,62.43
2022-07-26T03:17:59.931Z,62.35
2022-07-26T03:23:02.749Z,62.18
2022-07-26T03:28:05.749Z,62.21
2022-07-26T03:33:08.446Z,62.13
2022-07-26T03:38:11.159Z,62.35
2022-07-26T03:43:14.198Z,62.71
2022-07-26T03:48:17.324Z,62.61
2022-07-26T03:53:20.134Z,62.47
2022-07-26T03:58:22.839Z,62.25
2022-07-26T04:03:25.812Z,62.20
2022-07-26T04:08:28.537Z,62.09
2022-07-26T04:13:31.342Z,62.14
2022-07-26T04:18:34.233Z,61.97
2022-07-26T04:23:36.992Z,61.98
2022-07-26T04:28:41.254Z,61.84
2022-07-26T04:33:44.005Z,61.38
2022-07-26T04:38:46.960Z,61.14
2022-07-26T04:43:49.870Z,61.09
2022-07-26T04:48:52.862Z,60.78
2022-07-26T04:53:55.795Z,60.60
2022-07-26T04:58:58.486Z,60.48
2022-07-26T05:04:01.271Z,60.24
2022-07-26T05:09:04.298Z,59.71
2022-07-26T05:14:07.336Z,59.73
2022-07-26T05:19:10.342Z,59.51
2022-07-26T05:24:13.092Z,59.63
2022-07-26T05:29:15.812Z,59.07
2022-07-26T05:34:18.546Z,59.74
2022-07-26T05:39:21.308Z,59.83
2022-07-26T05:44:24.747Z,58.44
2022-07-26T05:49:39.818Z,58.09
2022-07-26T05:54:43.606Z,57.20
2022-07-26T05:59:46.337Z,56.80
2022-07-26T06:04:49.180Z,56.37
2022-07-26T06:09:52.023Z,55.51
2022-07-26T06:14:54.849Z,54.74
2022-07-26T06:19:58.351Z,53.43
2022-07-26T06:25:01.081Z,52.88
2022-07-26T06:30:05.124Z,52.78
2022-07-26T06:35:07.954Z,54.41
2022-07-26T06:40:11.635Z,55.13
2022-07-26T06:45:14.578Z,55.08
2022-07-26T06:50:17.670Z,55.33
2022-07-26T06:55:28.321Z,55.87
2022-07-26T07:00:31.129Z,56.18
2022-07-26T07:05:33.861Z,55.86
2022-07-26T07:10:36.634Z,56.02
2022-07-26T07:15:39.778Z,55.60
2022-07-26T07:20:42.556Z,55.88
2022-07-26T07:25:46.579Z,56.10
2022-07-26T07:30:52.540Z,56.11
2022-07-26T07:35:55.305Z,56.13
2022-07-26T07:40:58.035Z,56.20
2022-07-26T07:46:00.761Z,55.59
2022-07-26T07:51:03.676Z,54.84
2022-07-26T07:56:06.640Z,55.29
2022-07-26T08:01:10.339Z,55.67
2022-07-26T08:06:16.335Z,56.76
2022-07-26T08:11:19.411Z,58.50
2022-07-26T08:16:22.235Z,59.69
2022-07-26T08:21:28.247Z,60.09
2022-07-26T08:26:31.894Z,60.43
2022-07-26T08:31:34.809Z,61.56
2022-07-26T08:36:41.941Z,62.07
2022-07-26T08:41:52.437Z,62.06
2022-07-26T08:46:55.380Z,62.49
2022-07-26T08:52:00.096Z,63.50
2022-07-26T08:57:03.031Z,63.73
2022-07-26T09:02:08.886Z,63.74
2022-07-26T09:07:18.472Z,64.38
2022-07-26T09:12:22.361Z,65.51
2022-07-26T09:17:37.698Z,65.73
2022-07-26T09:23:16.429Z,65.42
2022-07-26T09:28:21.778Z,65.50
2022-07-26T09:33:24.551Z,66.40
2022-07-26T09:38:48.993Z,67.72
2022-07-26T09:43:53.999Z,68.07
2022-07-26T09:49:16.351Z,68.05
2022-07-26T09:54:29.814Z,68.60
2022-07-26T09:59:33.419Z,68.94
2022-07-26T10:04:36.483Z,69.53
2022-07-26T10:10:03.615Z,70.47
2022-07-26T10:15:07.330Z,71.30
2022-07-26T10:20:31.660Z,72.39
2022-07-26T10:25:34.883Z,73.01
2022-07-26T10:30:37.664Z,73.18
2022-07-26T10:35:43.655Z,73.14
2022-07-26T10:41:04.823Z,73.29
2022-07-26T10:46:16.989Z,74.00
2022-07-26T10:51:28.532Z,74.32
2022-07-26T10:56:33.427Z,75.05
2022-07-26T11:01:42.284Z,75.71
2022-07-26T11:06:45.864Z,75.84
2022-07-26T11:11:48.909Z,76.39
2022-07-26T11:16:51.697Z,76.42
2022-07-26T11:22:00.167Z,75.53
2022-07-26T11:27:04.352Z,75.17
2022-07-26T11:32:21.799Z,74.99
2022-07-26T11:37:24.952Z,74.62
2022-07-26T11:42:27.930Z,74.33
2022-07-26T11:47:30.646Z,73.78
2022-07-26T11:52:33.434Z,72.62
2022-07-26T11:57:36.467Z,71.97
2022-07-26T12:02:39.367Z,71.28
2022-07-26T12:08:00.174Z,70.37
2022-07-26T12:13:14.208Z,69.86
2022-07-26T12:18:30.751Z,68.33
2022-07-26T12:23:43.943Z,68.49
2022-07-26T12:28:46.694Z,68.29
2022-07-26T12:33:50.646Z,67.66
2022-07-26T12:38:53.753Z,67.85
2022-07-26T12:43:56.433Z,68.30
2022-07-26T12:49:00.632Z,68.15
2022-07-26T12:54:06.473Z,67.69
2022-07-26T12:59:11.023Z,67.56
2022-07-26T13:04:20.518Z,67.46
2022-07-26T13:09:23.365Z,67.35
2022-07-26T13:14:26.695Z,67.69
2022-07-26T13:19:30.544Z,67.62
2022-07-26T13:24:34.260Z,67.38
2022-07-26T13:29:37.574Z,67.07
2022-07-26T13:34:40.295Z,66.80
2022-07-26T13:39:45.099Z,66.26
2022-07-26T13:44:47.790Z,65.85
2022-07-26T13:49:50.622Z,66.25
2022-07-26T13:54:53.401Z,66.58
2022-07-26T13:59:56.183Z,66.66
2022-07-26T14:04:58.877Z,66.70
2022-07-26T14:10:01.833Z,66.79
2022-07-26T14:15:11.249Z,66.50
2022-07-26T14:20:17.250Z,66.41
2022-07-26T14:25:21.728Z,66.34
2022-07-26T14:30:24.486Z,66.15
2022-07-26T14:35:27.252Z,65.97
2022-07-26T14:40:29.959Z,66.14
2022-07-26T14:45:32.767Z,66.30
2022-07-26T14:50:53.375Z,65.94
2022-07-26T14:55:58.538Z,65.63
2022-07-26T15:01:01.475Z,65.59
2022-07-26T15:06:04.757Z,65.65
2022-07-26T15:11:07.632Z,65.75
2022-07-26T15:16:10.454Z,65.88
2022-07-26T15:21:15.581Z,65.64
2022-07-26T15:26:18.300Z,65.62
2022-07-26T15:31:21.068Z,65.29
2022-07-26T15:36:23.763Z,65.09
2022-07-26T15:41:26.512Z,65.33
2022-07-26T15:46:29.456Z,65.00
2022-07-26T15:51:33.042Z,64.86
2022-07-26T15:56:36.179Z,64.66
2022-07-26T16:01:38.973Z,64.88
2022-07-26T16:06:42.121Z,64.99
2022-07-26T16:11:45.459Z,65.02
2022-07-26T16:16:48.387Z,64.58
2022-07-26T16:21:51.211Z,64.75
2022-07-26T16:26:53.964Z,65.04
2022-07-26T16:31:56.721Z,64.95
2022-07-26T16:36:59.557Z,65.16
2022-07-26T16:42:06.877Z,65.08
2022-07-26T16:47:10.147Z,64.93
2022-07-26T16:52:13.002Z,65.16
2022-07-26T16:57:15.808Z,65.16
2022-07-26T17:02:18.614Z,65.00
2022-07-26T17:07:26.082Z,65.07
2022-07-26T17:12:29.470Z,64.85
2022-07-26T17:17:32.185Z,65.09
2022-07-26T17:22:34.941Z,65.26
2022-07-26T17:27:37.810Z,65.55
2022-07-26T17:32:40.648Z,65.76
2022-07-26T17:37:43.645Z,65.85
2022-07-26T17:42:46.880Z,65.88
2022-07-26T17:47:49.610Z,65.99
2022-07-26T17:52:53.224Z,66.04
2022-07-26T17:57:55.929Z,65.98
2022-07-26T18:02:58.644Z,66.18
2022-07-26T18:08:01.911Z,66.15
2022-07-26T18:13:04.588Z,66.07
2022-07-26T18:18:07.931Z,66.09
2022-07-26T18:23:10.889Z,66.28
2022-07-26T18:28:13.736Z,66.12
2022-07-26T18:33:16.712Z,66.15
2022-07-26T18:38:19.642Z,66.25
2022-07-26T18:43:22.389Z,66.45
2022-07-26T18:48:25.097Z,66.49
2022-07-26T18:53:32.494Z,66.69
2022-07-26T18:58:35.211Z,66.61
2022-07-26T19:03:38.394Z,66.63
2022-07-26T19:08:41.197Z,66.85
2022-07-26T19:13:43.897Z,66.79
2022-07-26T19:18:50.090Z,66.71
2022-07-26T19:23:54.655Z,67.08
2022-07-26T19:28:57.785Z,67.29
2022-07-26T19:34:00.438Z,67.50
2022-07-26T19:39:04.484Z,67.58
2022-07-26T19:44:07.211Z,67.94
2022-07-26T19:49:11.516Z,67.97
2022-07-26T19:54:14.609Z,68.09
2022-07-26T19:59:23.085Z,68.57
2022-07-26T20:04:26.935Z,69.25
2022-07-26T20:09:30.098Z,69.65
2022-07-26T20:14:32.880Z,69.17
2022-07-26T20:19:35.683Z,69.01
2022-07-26T20:24:38.426Z,69.43
2022-07-26T20:29:41.133Z,70.21
2022-07-26T20:34:43.890Z,70.68
2022-07-26T20:39:47.097Z,71.04
2022-07-26T20:44:52.823Z,71.58
2022-07-26T20:50:01.018Z,72.24
2022-07-26T20:55:06.792Z,73.34
2022-07-26T21:00:11.470Z,74.03
2022-07-26T21:05:14.273Z,74.61
2022-07-26T21:10:17.778Z,75.71
2022-07-26T21:15:21.428Z,75.92
2022-07-26T21:20:24.429Z,76.32
2022-07-26T21:25:27.108Z,76.44
2022-07-26T21:30:29.834Z,75.57
2022-07-26T21:35:32.855Z,74.79
2022-07-26T21:40:36.214Z,74.46
2022-07-26T21:45:39.270Z,74.23
2022-07-26T21:50:42.080Z,74.13
2022-07-26T21:55:44.805Z,74.06
2022-07-26T22:00:47.749Z,74.23
2022-07-26T22:05:52.659Z,74.41
2022-07-26T22:10:56.895Z,74.27
2022-07-26T22:15:59.710Z,74.28
2022-07-26T22:21:02.654Z,74.21
2022-07-26T22:26:06.120Z,73.84
2022-07-26T22:31:08.902Z,72.18
2022-07-26T22:36:11.615Z,70.89
2022-07-26T22:41:14.292Z,70.18
2022-07-26T22:46:18.258Z,68.55
2022-07-26T22:51:30.380Z,67.70
2022-07-26T22:56:33.047Z,66.37
2022-07-26T23:01:36.157Z,65.63
2022-07-26T23:06:39.004Z,65.40
2022-07-26T23:11:43.151Z,65.24
2022-07-26T23:16:45.908Z,65.58
2022-07-26T23:21:48.742Z,65.67
2022-07-26T23:26:51.474Z,65.53
2022-07-26T23:31:54.261Z,65.50
2022-07-26T23:36:57.083Z,65.65
2022-07-26T23:42:02.822Z,65.77
2022-07-26T23:47:05.697Z,65.85
2022-07-26T23:52:08.549Z,66.01
2022-07-26T23:57:12.559Z,66.22
